createdAt,value
2017-05-24T00:00:08.837Z,16.83
2017-05-24T00:00:34.951Z,16.9
2017-05-24T00:01:01.087Z,16.87
2017-05-24T00:01:27.186Z,16.84
2017-05-24T00:01:53.278Z,16.86
2017-05-24T00:02:19.437Z,16.96
2017-05-24T00:02:45.565Z,16.93
2017-05-24T00:03:11.704Z,16.89
2017-05-24T00:03:37.834Z,16.96
2017-05-24T00:04:03.956Z,16.96
2017-05-24T00:04:30.146Z,16.97
2017-05-24T00:04:56.268Z,16.99
2017-05-24T00:05:22.382Z,16.99
2017-05-24T00:05:48.487Z,16.96
2017-05-24T00:06:14.587Z,16.99
2017-05-24T00:06:40.680Z,17.04
2017-05-24T00:07:06.808Z,17.02
2017-05-24T00:07:32.940Z,16.93
2017-05-24T00:07:59.076Z,16.9
2017-05-24T00:08:25.181Z,16.79
2017-05-24T00:08:51.317Z,16.79
2017-05-24T00:09:17.433Z,16.81
2017-05-24T00:09:43.530Z,16.76
2017-05-24T00:10:09.637Z,16.74
2017-05-24T00:10:35.755Z,16.74
2017-05-24T00:11:01.846Z,16.78
2017-05-24T00:11:27.959Z,16.76
2017-05-24T00:11:54.057Z,16.83
2017-05-24T00:12:20.150Z,16.81
2017-05-24T00:12:46.283Z,16.69
2017-05-24T00:13:12.440Z,16.86
2017-05-24T00:13:38.556Z,16.79
2017-05-24T00:14:04.736Z,16.81
2017-05-24T00:14:30.841Z,16.78
2017-05-24T00:14:56.934Z,16.79
2017-05-24T00:15:23.033Z,16.89
2017-05-24T00:15:49.122Z,16.81
2017-05-24T00:16:15.258Z,16.9
2017-05-24T00:16:41.413Z,16.89
2017-05-24T00:17:07.530Z,16.84
2017-05-24T00:17:33.634Z,16.87
2017-05-24T00:17:59.811Z,16.83
2017-05-24T00:18:25.951Z,16.87
2017-05-24T00:18:52.078Z,16.76
2017-05-24T00:19:18.212Z,16.81
2017-05-24T00:19:44.330Z,16.76
2017-05-24T00:20:10.527Z,16.84
2017-05-24T00:20:36.623Z,16.78
2017-05-24T00:21:02.727Z,16.81
2017-05-24T00:21:28.835Z,16.81
2017-05-24T00:21:54.949Z,16.79
2017-05-24T00:22:21.052Z,16.78
2017-05-24T00:22:47.157Z,16.83
2017-05-24T00:23:13.273Z,16.83
2017-05-24T00:23:39.421Z,16.78
2017-05-24T00:24:05.580Z,16.76
2017-05-24T00:24:31.700Z,16.74
2017-05-24T00:24:57.789Z,16.81
2017-05-24T00:25:23.925Z,16.81
2017-05-24T00:25:50.022Z,16.76
2017-05-24T00:26:16.127Z,16.79
2017-05-24T00:26:42.244Z,16.78
2017-05-24T00:27:08.340Z,16.84
2017-05-24T00:27:34.447Z,16.87
2017-05-24T00:28:00.546Z,16.86
2017-05-24T00:28:26.659Z,16.9
2017-05-24T00:28:52.798Z,16.94
2017-05-24T00:29:18.895Z,16.81
2017-05-24T00:29:45.039Z,16.9
2017-05-24T00:30:11.171Z,16.9
2017-05-24T00:30:37.270Z,16.83
2017-05-24T00:31:03.383Z,16.87
2017-05-24T00:31:29.514Z,16.87
2017-05-24T00:31:55.653Z,16.94
2017-05-24T00:32:21.789Z,17.02
2017-05-24T00:32:47.913Z,16.81
2017-05-24T00:33:14.056Z,16.86
2017-05-24T00:33:40.174Z,16.86
2017-05-24T00:34:06.291Z,16.94
2017-05-24T00:34:32.408Z,16.87
2017-05-24T00:34:58.547Z,16.94
2017-05-24T00:35:24.644Z,16.87
2017-05-24T00:35:50.758Z,16.86
2017-05-24T00:36:16.858Z,16.81
2017-05-24T00:36:42.991Z,16.79
2017-05-24T00:37:09.110Z,16.79
2017-05-24T00:37:35.241Z,16.84
2017-05-24T00:38:01.382Z,16.76
2017-05-24T00:38:27.537Z,16.83
2017-05-24T00:38:53.673Z,16.84
2017-05-24T00:39:19.813Z,16.72
2017-05-24T00:39:45.963Z,16.76
2017-05-24T00:40:12.070Z,16.74
2017-05-24T00:40:38.159Z,16.71
2017-05-24T00:41:04.281Z,16.6
2017-05-24T00:41:30.388Z,16.72
2017-05-24T00:41:56.508Z,16.6
2017-05-24T00:42:22.599Z,16.58
2017-05-24T00:42:48.760Z,16.54
2017-05-24T00:43:14.911Z,16.56
2017-05-24T00:43:41.022Z,16.6
2017-05-24T00:44:07.139Z,16.51
2017-05-24T00:44:33.260Z,16.5
2017-05-24T00:44:59.423Z,16.57
2017-05-24T00:45:25.518Z,16.56
2017-05-24T00:45:51.605Z,16.61
2017-05-24T00:46:17.741Z,16.56
2017-05-24T00:46:43.841Z,16.56
2017-05-24T00:47:09.955Z,16.43
2017-05-24T00:47:36.086Z,16.47
2017-05-24T00:48:02.295Z,16.5
2017-05-24T00:48:28.402Z,16.54
2017-05-24T00:48:54.519Z,16.56
2017-05-24T00:49:20.636Z,16.53
2017-05-24T00:49:46.829Z,16.53
2017-05-24T00:50:12.953Z,16.46
2017-05-24T00:50:39.092Z,16.39
2017-05-24T00:51:05.226Z,16.49
2017-05-24T00:51:31.330Z,16.41
2017-05-24T00:51:57.470Z,16.43
2017-05-24T00:52:23.602Z,16.43
2017-05-24T00:52:49.764Z,16.41
2017-05-24T00:53:15.926Z,16.41
2017-05-24T00:53:42.052Z,16.38
2017-05-24T00:54:08.217Z,16.42
2017-05-24T00:54:34.361Z,16.42
2017-05-24T00:55:00.511Z,16.41
2017-05-24T00:55:26.618Z,16.39
2017-05-24T00:55:52.712Z,16.47
2017-05-24T00:56:18.831Z,16.43
2017-05-24T00:56:44.990Z,16.53
2017-05-24T00:57:11.090Z,16.46
2017-05-24T00:57:37.208Z,16.49
2017-05-24T00:58:03.396Z,16.46
2017-05-24T00:58:29.528Z,16.38
2017-05-24T00:58:55.666Z,16.47
2017-05-24T00:59:21.793Z,16.51
2017-05-24T00:59:47.935Z,16.61
2017-05-24T01:00:14.072Z,16.57
2017-05-24T01:00:40.195Z,16.5
2017-05-24T01:01:06.284Z,16.47
2017-05-24T01:01:32.420Z,16.5
2017-05-24T01:01:58.574Z,16.49
2017-05-24T01:02:24.689Z,16.6
2017-05-24T01:02:50.794Z,16.6
2017-05-24T01:03:16.900Z,16.6
2017-05-24T01:03:42.988Z,16.6
2017-05-24T01:04:09.174Z,16.61
2017-05-24T01:04:35.307Z,16.53
2017-05-24T01:05:01.423Z,16.56
2017-05-24T01:05:27.528Z,16.5
2017-05-24T01:05:53.618Z,16.61
2017-05-24T01:06:19.722Z,16.54
2017-05-24T01:06:45.829Z,16.58
2017-05-24T01:07:11.944Z,16.74
2017-05-24T01:07:38.066Z,16.64
2017-05-24T01:08:04.229Z,16.74
2017-05-24T01:08:30.348Z,16.69
2017-05-24T01:08:56.469Z,16.71
2017-05-24T01:09:22.611Z,16.75
2017-05-24T01:09:48.705Z,16.75
2017-05-24T01:10:14.844Z,16.68
2017-05-24T01:10:40.951Z,16.64
2017-05-24T01:11:07.073Z,16.64
2017-05-24T01:11:33.179Z,16.64
2017-05-24T01:11:59.268Z,16.65
2017-05-24T01:12:25.364Z,16.66
2017-05-24T01:12:51.530Z,16.66
2017-05-24T01:13:17.622Z,16.72
2017-05-24T01:13:43.736Z,16.64
2017-05-24T01:14:09.868Z,16.65
2017-05-24T01:14:36.044Z,16.72
2017-05-24T01:15:02.214Z,16.79
2017-05-24T01:15:28.342Z,16.75
2017-05-24T01:15:54.470Z,16.66
2017-05-24T01:16:20.571Z,16.64
2017-05-24T01:16:46.792Z,16.71
2017-05-24T01:17:12.908Z,16.66
2017-05-24T01:17:39.044Z,16.6
2017-05-24T01:18:05.196Z,16.76
2017-05-24T01:18:31.336Z,16.64
2017-05-24T01:18:57.466Z,16.74
2017-05-24T01:19:23.619Z,16.65
2017-05-24T01:19:49.760Z,16.64
2017-05-24T01:20:15.891Z,16.72
2017-05-24T01:20:42.054Z,16.66
2017-05-24T01:21:08.165Z,16.71
2017-05-24T01:21:34.266Z,16.75
2017-05-24T01:22:00.385Z,16.64
2017-05-24T01:22:26.491Z,16.65
2017-05-24T01:22:52.619Z,16.68
2017-05-24T01:23:18.731Z,16.64
2017-05-24T01:23:44.836Z,16.76
2017-05-24T01:24:10.971Z,16.66
2017-05-24T01:24:37.108Z,16.64
2017-05-24T01:25:03.265Z,16.66
2017-05-24T01:25:29.368Z,16.6
2017-05-24T01:25:55.487Z,16.66
2017-05-24T01:26:21.583Z,16.6
2017-05-24T01:26:47.716Z,16.5
2017-05-24T01:27:13.837Z,16.61
2017-05-24T01:27:39.966Z,16.54
2017-05-24T01:28:06.080Z,16.57
2017-05-24T01:28:32.256Z,16.56
2017-05-24T01:28:58.395Z,16.54
2017-05-24T01:29:24.511Z,16.46
2017-05-24T01:29:50.656Z,16.6
2017-05-24T01:30:16.762Z,16.49
2017-05-24T01:30:42.856Z,16.54
2017-05-24T01:31:08.972Z,16.64
2017-05-24T01:31:35.083Z,16.58
2017-05-24T01:32:01.207Z,16.56
2017-05-24T01:32:27.297Z,16.56
2017-05-24T01:32:53.402Z,16.6
2017-05-24T01:33:19.519Z,16.6
2017-05-24T01:33:45.653Z,16.58
2017-05-24T01:34:11.771Z,16.58
2017-05-24T01:34:37.866Z,16.57
2017-05-24T01:35:04.003Z,16.6
2017-05-24T01:35:30.129Z,16.6
2017-05-24T01:35:56.268Z,16.71
2017-05-24T01:36:22.404Z,16.71
2017-05-24T01:36:48.530Z,16.68
2017-05-24T01:37:14.621Z,16.75
2017-05-24T01:37:40.749Z,16.58
2017-05-24T01:38:06.883Z,16.61
2017-05-24T01:38:32.970Z,16.61
2017-05-24T01:38:59.093Z,16.53
2017-05-24T01:39:25.225Z,16.57
2017-05-24T01:39:51.368Z,16.53
2017-05-24T01:40:17.466Z,16.58
2017-05-24T01:40:43.573Z,16.58
2017-05-24T01:41:09.694Z,16.47
2017-05-24T01:41:35.810Z,16.56
2017-05-24T01:42:01.943Z,16.54
2017-05-24T01:42:28.040Z,16.46
2017-05-24T01:42:54.155Z,16.43
2017-05-24T01:43:20.284Z,16.5
2017-05-24T01:43:46.411Z,16.51
2017-05-24T01:44:12.538Z,16.43
2017-05-24T01:44:38.662Z,16.47
2017-05-24T01:45:04.778Z,16.53
2017-05-24T01:45:30.887Z,16.53
2017-05-24T01:45:56.986Z,16.51
2017-05-24T01:46:23.076Z,16.51
2017-05-24T01:46:49.206Z,16.46
2017-05-24T01:47:15.334Z,16.42
2017-05-24T01:47:41.452Z,16.5
2017-05-24T01:48:07.583Z,16.5
2017-05-24T01:48:33.688Z,16.43
2017-05-24T01:48:59.850Z,16.49
2017-05-24T01:49:26.033Z,16.41
2017-05-24T01:49:52.092Z,16.49
2017-05-24T01:50:18.222Z,16.41
2017-05-24T01:50:44.408Z,16.41
2017-05-24T01:51:10.523Z,16.36
2017-05-24T01:51:36.626Z,16.46
2017-05-24T01:52:02.730Z,16.36
2017-05-24T01:52:28.843Z,16.41
2017-05-24T01:52:54.943Z,16.41
2017-05-24T01:53:21.077Z,16.41
2017-05-24T01:53:47.223Z,16.42
2017-05-24T01:54:13.368Z,16.39
2017-05-24T01:54:39.501Z,16.36
2017-05-24T01:55:05.652Z,16.38
2017-05-24T01:55:31.758Z,16.39
2017-05-24T01:55:57.869Z,16.42
2017-05-24T01:56:23.968Z,16.36
2017-05-24T01:56:50.130Z,16.42
2017-05-24T01:57:16.252Z,16.5
2017-05-24T01:57:42.400Z,16.41
2017-05-24T01:58:08.560Z,16.41
2017-05-24T01:58:34.682Z,16.32
2017-05-24T01:59:00.843Z,16.35
2017-05-24T01:59:27.004Z,16.32
2017-05-24T01:59:53.181Z,16.26
2017-05-24T02:00:19.347Z,16.28
2017-05-24T02:00:45.452Z,16.31
2017-05-24T02:01:11.544Z,16.24
2017-05-24T02:01:37.648Z,16.32
2017-05-24T02:02:03.741Z,16.29
2017-05-24T02:02:29.830Z,16.26
2017-05-24T02:02:55.940Z,16.38
2017-05-24T02:03:22.090Z,16.31
2017-05-24T02:03:48.205Z,16.33
2017-05-24T02:04:14.310Z,16.31
2017-05-24T02:04:40.467Z,16.41
2017-05-24T02:05:06.606Z,16.29
2017-05-24T02:05:32.785Z,16.31
2017-05-24T02:05:58.920Z,16.28
2017-05-24T02:06:25.042Z,16.28
2017-05-24T02:06:51.139Z,16.23
2017-05-24T02:07:17.253Z,16.26
2017-05-24T02:07:43.383Z,16.24
2017-05-24T02:08:09.565Z,16.28
2017-05-24T02:08:35.707Z,16.26
2017-05-24T02:09:01.863Z,16.24
2017-05-24T02:09:27.995Z,16.24
2017-05-24T02:09:54.108Z,16.32
2017-05-24T02:10:20.257Z,16.29
2017-05-24T02:10:46.362Z,16.26
2017-05-24T02:11:12.476Z,16.26
2017-05-24T02:11:38.597Z,16.24
2017-05-24T02:12:04.721Z,16.31
2017-05-24T02:12:30.825Z,16.23
2017-05-24T02:12:56.958Z,16.28
2017-05-24T02:13:23.071Z,16.16
2017-05-24T02:13:49.171Z,16.09
2017-05-24T02:14:15.305Z,16.13
2017-05-24T02:14:41.395Z,16.1
2017-05-24T02:15:07.542Z,16.12
2017-05-24T02:15:33.651Z,16.05
2017-05-24T02:15:59.745Z,16.1
2017-05-24T02:16:25.834Z,16.1
2017-05-24T02:16:51.970Z,16.15
2017-05-24T02:17:18.095Z,16.12
2017-05-24T02:17:44.223Z,16.15
2017-05-24T02:18:10.341Z,16.16
2017-05-24T02:18:36.463Z,16.16
2017-05-24T02:19:02.629Z,16.2
2017-05-24T02:19:28.750Z,16.13
2017-05-24T02:19:54.866Z,16.26
2017-05-24T02:20:20.997Z,16.28
2017-05-24T02:20:47.094Z,16.24
2017-05-24T02:21:13.188Z,16.32
2017-05-24T02:21:39.294Z,16.26
2017-05-24T02:22:05.396Z,16.29
2017-05-24T02:22:31.511Z,16.23
2017-05-24T02:22:57.641Z,16.23
2017-05-24T02:23:23.775Z,16.28
2017-05-24T02:23:49.886Z,16.23
2017-05-24T02:24:16.011Z,16.2
2017-05-24T02:24:42.200Z,16.12
2017-05-24T02:25:08.320Z,16.08
2017-05-24T02:25:34.417Z,16.08
2017-05-24T02:26:00.524Z,16.05
2017-05-24T02:26:26.640Z,16.01
2017-05-24T02:26:52.756Z,16.01
2017-05-24T02:27:18.865Z,16.02
2017-05-24T02:27:45.016Z,15.97
2017-05-24T02:28:11.133Z,15.97
2017-05-24T02:28:37.318Z,16.01
2017-05-24T02:29:03.486Z,15.97
2017-05-24T02:29:29.621Z,16.05
2017-05-24T02:29:55.742Z,16.02
2017-05-24T02:30:21.855Z,16.1
2017-05-24T02:30:47.993Z,16.05
2017-05-24T02:31:14.118Z,15.97
2017-05-24T02:31:40.210Z,16.02
2017-05-24T02:32:06.318Z,15.97
2017-05-24T02:32:32.445Z,16
2017-05-24T02:32:58.600Z,16.02
2017-05-24T02:33:24.750Z,16.04
2017-05-24T02:33:50.840Z,16.05
2017-05-24T02:34:16.944Z,16.05
2017-05-24T02:34:43.068Z,16.05
2017-05-24T02:35:09.204Z,16.01
2017-05-24T02:35:35.321Z,16.13
2017-05-24T02:36:01.418Z,16.08
2017-05-24T02:36:27.581Z,16.01
2017-05-24T02:36:53.675Z,16.01
2017-05-24T02:37:19.764Z,16.08
2017-05-24T02:37:45.875Z,15.98
2017-05-24T02:38:12.000Z,16.01
2017-05-24T02:38:38.090Z,16.02
2017-05-24T02:39:04.223Z,15.97
2017-05-24T02:39:30.353Z,16.02
2017-05-24T02:39:56.452Z,16.01
2017-05-24T02:40:22.571Z,15.88
2017-05-24T02:40:48.661Z,15.97
2017-05-24T02:41:14.775Z,15.98
2017-05-24T02:41:40.901Z,15.94
2017-05-24T02:42:07.037Z,16.02
2017-05-24T02:42:33.143Z,15.98
2017-05-24T02:42:59.273Z,16.02
2017-05-24T02:43:25.362Z,15.98
2017-05-24T02:43:51.489Z,15.98
2017-05-24T02:44:17.625Z,16
2017-05-24T02:44:43.710Z,15.97
2017-05-24T02:45:09.861Z,15.92
2017-05-24T02:45:35.959Z,15.97
2017-05-24T02:46:02.065Z,15.98
2017-05-24T02:46:28.166Z,15.82
2017-05-24T02:46:54.306Z,15.88
2017-05-24T02:47:20.431Z,15.95
2017-05-24T02:47:46.594Z,15.95
2017-05-24T02:48:12.705Z,15.94
2017-05-24T02:48:38.832Z,15.97
2017-05-24T02:49:04.935Z,15.94
2017-05-24T02:49:31.050Z,15.9
2017-05-24T02:49:57.150Z,16.01
2017-05-24T02:50:23.285Z,16.05
2017-05-24T02:50:49.383Z,16.05
2017-05-24T02:51:15.514Z,15.91
2017-05-24T02:51:41.603Z,16.05
2017-05-24T02:52:07.755Z,15.95
2017-05-24T02:52:33.887Z,15.95
2017-05-24T02:53:00.058Z,15.94
2017-05-24T02:53:26.178Z,15.9
2017-05-24T02:53:52.315Z,16.04
2017-05-24T02:54:18.486Z,16.08
2017-05-24T02:54:44.578Z,16.05
2017-05-24T02:55:10.718Z,16.04
2017-05-24T02:55:36.816Z,16.02
2017-05-24T02:56:02.930Z,15.97
2017-05-24T02:56:29.037Z,15.95
2017-05-24T02:56:55.156Z,16
2017-05-24T02:57:21.347Z,15.98
2017-05-24T02:57:47.490Z,15.98
2017-05-24T02:58:13.606Z,16
2017-05-24T02:58:39.716Z,16
2017-05-24T02:59:05.836Z,16
2017-05-24T02:59:31.927Z,16
2017-05-24T02:59:58.037Z,15.98
2017-05-24T03:00:24.137Z,15.95
2017-05-24T03:00:50.229Z,16.01
2017-05-24T03:01:16.331Z,15.97
2017-05-24T03:01:42.435Z,16.05
2017-05-24T03:02:08.555Z,16.02
2017-05-24T03:02:34.650Z,15.98
2017-05-24T03:03:00.792Z,16.09
2017-05-24T03:03:26.921Z,16.04
2017-05-24T03:03:53.074Z,15.97
2017-05-24T03:04:19.189Z,15.94
2017-05-24T03:04:45.319Z,15.97
2017-05-24T03:05:11.423Z,15.91
2017-05-24T03:05:37.536Z,16.1
2017-05-24T03:06:03.683Z,15.97
2017-05-24T03:06:29.844Z,15.92
2017-05-24T03:06:55.936Z,16.02
2017-05-24T03:07:22.032Z,16.04
2017-05-24T03:07:48.139Z,16.04
2017-05-24T03:08:14.233Z,16.08
2017-05-24T03:08:40.399Z,16.13
2017-05-24T03:09:06.560Z,16.05
2017-05-24T03:09:32.685Z,16.09
2017-05-24T03:09:58.777Z,16.1
2017-05-24T03:10:24.908Z,16.15
2017-05-24T03:10:51.007Z,16.17
2017-05-24T03:11:17.123Z,16.15
2017-05-24T03:11:43.227Z,16.16
2017-05-24T03:12:09.418Z,16.28
2017-05-24T03:12:35.530Z,16.23
2017-05-24T03:13:01.660Z,16.2
2017-05-24T03:13:27.806Z,16.29
2017-05-24T03:13:53.936Z,16.2
2017-05-24T03:14:20.066Z,16.1
2017-05-24T03:14:46.181Z,16.21
2017-05-24T03:15:12.283Z,16.2
2017-05-24T03:15:38.391Z,16.17
2017-05-24T03:16:04.476Z,16.16
2017-05-24T03:16:30.578Z,16.15
2017-05-24T03:16:56.713Z,16.12
2017-05-24T03:17:22.856Z,16.12
2017-05-24T03:17:48.979Z,16.05
2017-05-24T03:18:15.170Z,16.15
2017-05-24T03:18:41.264Z,16.1
2017-05-24T03:19:07.396Z,16.15
2017-05-24T03:19:33.507Z,16.1
2017-05-24T03:19:59.684Z,16.12
2017-05-24T03:20:25.818Z,16.16
2017-05-24T03:20:51.911Z,16.08
2017-05-24T03:21:18.032Z,16.2
2017-05-24T03:21:44.163Z,16.16
2017-05-24T03:22:10.257Z,16.13
2017-05-24T03:22:36.349Z,16.24
2017-05-24T03:23:02.486Z,16.24
2017-05-24T03:23:28.663Z,16.17
2017-05-24T03:23:54.781Z,16.16
2017-05-24T03:24:20.942Z,16.15
2017-05-24T03:24:47.058Z,16.23
2017-05-24T03:25:13.192Z,16.21
2017-05-24T03:25:39.309Z,16.13
2017-05-24T03:26:05.423Z,16.13
2017-05-24T03:26:31.560Z,16.12
2017-05-24T03:26:57.659Z,16.12
2017-05-24T03:27:23.748Z,16.15
2017-05-24T03:27:49.855Z,16.12
2017-05-24T03:28:15.983Z,16.1
2017-05-24T03:28:42.073Z,16.1
2017-05-24T03:29:08.212Z,16.15
2017-05-24T03:29:34.368Z,16.1
2017-05-24T03:30:00.462Z,16.12
2017-05-24T03:30:26.611Z,16.09
2017-05-24T03:30:52.704Z,16.12
2017-05-24T03:31:18.860Z,16.09
2017-05-24T03:31:44.959Z,16.2
2017-05-24T03:32:11.051Z,16.12
2017-05-24T03:32:37.184Z,16.2
2017-05-24T03:33:03.319Z,16.29
2017-05-24T03:33:29.408Z,16.31
2017-05-24T03:33:55.562Z,16.29
2017-05-24T03:34:21.699Z,16.28
2017-05-24T03:34:47.818Z,16.28
2017-05-24T03:35:13.916Z,16.29
2017-05-24T03:35:40.015Z,16.26
2017-05-24T03:36:06.144Z,16.33
2017-05-24T03:36:32.279Z,16.38
2017-05-24T03:36:58.367Z,16.36
2017-05-24T03:37:24.468Z,16.29
2017-05-24T03:37:50.600Z,16.28
2017-05-24T03:38:16.769Z,16.31
2017-05-24T03:38:42.889Z,16.29
2017-05-24T03:39:09.079Z,16.31
2017-05-24T03:39:35.196Z,16.31
2017-05-24T03:40:01.313Z,16.29
2017-05-24T03:40:27.423Z,16.31
2017-05-24T03:40:53.519Z,16.38
2017-05-24T03:41:19.622Z,16.33
2017-05-24T03:41:45.742Z,16.29
2017-05-24T03:42:11.863Z,16.41
2017-05-24T03:42:37.998Z,16.36
2017-05-24T03:43:04.169Z,16.41
2017-05-24T03:43:30.286Z,16.41
2017-05-24T03:43:56.424Z,16.43
2017-05-24T03:44:22.602Z,16.49
2017-05-24T03:44:48.690Z,16.39
2017-05-24T03:45:14.820Z,16.39
2017-05-24T03:45:40.946Z,16.46
2017-05-24T03:46:07.062Z,16.49
2017-05-24T03:46:33.164Z,16.46
2017-05-24T03:46:59.281Z,16.39
2017-05-24T03:47:25.415Z,16.39
2017-05-24T03:47:51.537Z,16.35
2017-05-24T03:48:17.678Z,16.35
2017-05-24T03:48:43.810Z,16.46
2017-05-24T03:49:09.968Z,16.39
2017-05-24T03:49:36.083Z,16.46
2017-05-24T03:50:02.187Z,16.46
2017-05-24T03:50:28.323Z,16.46
2017-05-24T03:50:54.438Z,16.43
2017-05-24T03:51:20.566Z,16.43
2017-05-24T03:51:46.728Z,16.42
2017-05-24T03:52:12.846Z,16.41
2017-05-24T03:52:38.943Z,16.46
2017-05-24T03:53:05.111Z,16.35
2017-05-24T03:53:31.305Z,16.5
2017-05-24T03:53:57.420Z,16.46
2017-05-24T03:54:23.558Z,16.42
2017-05-24T03:54:49.654Z,16.41
2017-05-24T03:55:15.770Z,16.42
2017-05-24T03:55:41.868Z,16.39
2017-05-24T03:56:07.969Z,16.41
2017-05-24T03:56:34.058Z,16.49
2017-05-24T03:57:00.191Z,16.42
2017-05-24T03:57:26.324Z,16.41
2017-05-24T03:57:52.420Z,16.41
2017-05-24T03:58:18.546Z,16.32
2017-05-24T03:58:44.660Z,16.35
2017-05-24T03:59:10.768Z,16.33
2017-05-24T03:59:36.896Z,16.39
2017-05-24T04:00:03.011Z,16.42
2017-05-24T04:00:29.146Z,16.49
2017-05-24T04:00:55.280Z,16.47
2017-05-24T04:01:21.391Z,16.36
2017-05-24T04:01:47.490Z,16.41
2017-05-24T04:02:13.599Z,16.35
2017-05-24T04:02:39.719Z,16.39
2017-05-24T04:03:05.860Z,16.39
2017-05-24T04:03:31.987Z,16.39
2017-05-24T04:03:58.088Z,16.36
2017-05-24T04:04:24.278Z,16.36
2017-05-24T04:04:50.391Z,16.33
2017-05-24T04:05:16.518Z,16.32
2017-05-24T04:05:42.622Z,16.41
2017-05-24T04:06:08.719Z,16.33
2017-05-24T04:06:34.838Z,16.29
2017-05-24T04:07:00.946Z,16.36
2017-05-24T04:07:27.040Z,16.24
2017-05-24T04:07:53.131Z,16.31
2017-05-24T04:08:19.292Z,16.31
2017-05-24T04:08:45.419Z,16.26
2017-05-24T04:09:11.551Z,16.32
2017-05-24T04:09:37.667Z,16.31
2017-05-24T04:10:03.789Z,16.39
2017-05-24T04:10:29.893Z,16.26
2017-05-24T04:10:55.986Z,16.38
2017-05-24T04:11:22.078Z,16.28
2017-05-24T04:11:48.240Z,16.36
2017-05-24T04:12:14.364Z,16.35
2017-05-24T04:12:40.508Z,16.33
2017-05-24T04:13:06.665Z,16.42
2017-05-24T04:13:32.813Z,16.38
2017-05-24T04:13:58.951Z,16.41
2017-05-24T04:14:25.078Z,16.36
2017-05-24T04:14:51.169Z,16.28
2017-05-24T04:15:17.303Z,16.29
2017-05-24T04:15:43.452Z,16.35
2017-05-24T04:16:09.542Z,16.41
2017-05-24T04:16:35.678Z,16.38
2017-05-24T04:17:01.778Z,16.31
2017-05-24T04:17:27.869Z,16.33
2017-05-24T04:17:53.999Z,16.43
2017-05-24T04:18:20.135Z,16.35
2017-05-24T04:18:46.270Z,16.43
2017-05-24T04:19:12.372Z,16.36
2017-05-24T04:19:38.478Z,16.47
2017-05-24T04:20:04.621Z,16.47
2017-05-24T04:20:30.721Z,16.38
2017-05-24T04:20:56.813Z,16.41
2017-05-24T04:21:22.945Z,16.5
2017-05-24T04:21:49.082Z,16.41
2017-05-24T04:22:15.171Z,16.42
2017-05-24T04:22:41.271Z,16.38
2017-05-24T04:23:07.406Z,16.5
2017-05-24T04:23:33.520Z,16.41
2017-05-24T04:23:59.642Z,16.39
2017-05-24T04:24:25.749Z,16.46
2017-05-24T04:24:51.896Z,16.46
2017-05-24T04:25:18.037Z,16.38
2017-05-24T04:25:44.140Z,16.41
2017-05-24T04:26:10.242Z,16.39
2017-05-24T04:26:36.376Z,16.49
2017-05-24T04:27:02.467Z,16.32
2017-05-24T04:27:28.563Z,16.5
2017-05-24T04:27:54.698Z,16.49
2017-05-24T04:28:20.872Z,16.46
2017-05-24T04:28:46.989Z,16.54
2017-05-24T04:29:13.097Z,16.47
2017-05-24T04:29:39.220Z,16.5
2017-05-24T04:30:05.360Z,16.5
2017-05-24T04:30:31.476Z,16.5
2017-05-24T04:30:57.593Z,16.5
2017-05-24T04:31:23.721Z,16.47
2017-05-24T04:31:49.817Z,16.5
2017-05-24T04:32:15.934Z,16.56
2017-05-24T04:32:42.071Z,16.61
2017-05-24T04:33:08.168Z,16.61
2017-05-24T04:33:34.260Z,16.58
2017-05-24T04:34:00.421Z,16.74
2017-05-24T04:34:26.579Z,16.69
2017-05-24T04:34:52.671Z,16.66
2017-05-24T04:35:18.774Z,16.64
2017-05-24T04:35:44.881Z,16.74
2017-05-24T04:36:10.968Z,16.69
2017-05-24T04:36:37.069Z,16.79
2017-05-24T04:37:03.176Z,16.72
2017-05-24T04:37:29.269Z,16.75
2017-05-24T04:37:55.391Z,16.81
2017-05-24T04:38:21.554Z,16.81
2017-05-24T04:38:47.648Z,16.83
2017-05-24T04:39:13.788Z,16.86
2017-05-24T04:39:39.949Z,16.89
2017-05-24T04:40:06.073Z,16.96
2017-05-24T04:40:32.189Z,16.97
2017-05-24T04:40:58.294Z,16.93
2017-05-24T04:41:24.395Z,16.99
2017-05-24T04:41:50.511Z,16.96
2017-05-24T04:42:16.641Z,17.02
2017-05-24T04:42:42.731Z,16.94
2017-05-24T04:43:08.842Z,17.05
2017-05-24T04:43:34.941Z,17.05
2017-05-24T04:44:01.107Z,17.08
2017-05-24T04:44:27.243Z,17.23
2017-05-24T04:44:53.396Z,17.16
2017-05-24T04:45:19.514Z,17.19
2017-05-24T04:45:45.669Z,17.23
2017-05-24T04:46:11.776Z,17.23
2017-05-24T04:46:37.886Z,17.24
2017-05-24T04:47:03.991Z,17.3
2017-05-24T04:47:30.146Z,17.34
2017-05-24T04:47:56.293Z,17.31
2017-05-24T04:48:22.503Z,17.31
2017-05-24T04:48:48.619Z,17.29
2017-05-24T04:49:14.746Z,17.26
2017-05-24T04:49:40.854Z,17.27
2017-05-24T04:50:06.940Z,17.29
2017-05-24T04:50:33.042Z,17.3
2017-05-24T04:50:59.148Z,17.27
2017-05-24T04:51:25.239Z,17.27
2017-05-24T04:51:51.337Z,17.39
2017-05-24T04:52:17.480Z,17.38
2017-05-24T04:52:43.618Z,17.31
2017-05-24T04:53:09.712Z,17.36
2017-05-24T04:53:35.814Z,17.41
2017-05-24T04:54:01.915Z,17.48
2017-05-24T04:54:28.046Z,17.52
2017-05-24T04:54:54.138Z,17.45
2017-05-24T04:55:20.283Z,17.46
2017-05-24T04:55:46.418Z,17.48
2017-05-24T04:56:12.538Z,17.56
2017-05-24T04:56:38.631Z,17.52
2017-05-24T04:57:04.741Z,17.59
2017-05-24T04:57:30.840Z,17.54
2017-05-24T04:57:57.026Z,17.42
2017-05-24T04:58:23.159Z,17.57
2017-05-24T04:58:49.289Z,17.52
2017-05-24T04:59:15.380Z,17.51
2017-05-24T04:59:41.538Z,17.45
2017-05-24T05:00:07.673Z,17.49
2017-05-24T05:00:33.784Z,17.51
2017-05-24T05:00:59.886Z,17.56
2017-05-24T05:01:26.019Z,17.57
2017-05-24T05:01:52.111Z,17.64
2017-05-24T05:02:18.209Z,17.65
2017-05-24T05:02:44.316Z,17.57
2017-05-24T05:03:10.489Z,17.67
2017-05-24T05:03:36.605Z,17.7
2017-05-24T05:04:02.774Z,17.76
2017-05-24T05:04:28.896Z,17.82
2017-05-24T05:04:55.029Z,17.8
2017-05-24T05:05:21.148Z,17.76
2017-05-24T05:05:47.293Z,17.87
2017-05-24T05:06:13.398Z,17.8
2017-05-24T05:06:40.081Z,17.76
2017-05-24T05:07:08.085Z,17.71
2017-05-24T05:07:34.426Z,17.85
2017-05-24T05:08:00.580Z,17.86
2017-05-24T05:08:26.720Z,17.85
2017-05-24T05:08:52.853Z,17.9
2017-05-24T05:09:19.054Z,17.9
2017-05-24T05:09:45.966Z,18.01
2017-05-24T05:10:14.008Z,17.98
2017-05-24T05:10:41.518Z,18.03
2017-05-24T05:11:08.026Z,17.97
2017-05-24T05:11:36.160Z,17.92
2017-05-24T05:12:04.198Z,17.94
2017-05-24T05:12:31.147Z,17.95
2017-05-24T05:12:58.360Z,17.9
2017-05-24T05:13:26.645Z,18
2017-05-24T05:13:54.433Z,17.94
2017-05-24T05:14:21.341Z,17.95
2017-05-24T05:14:48.258Z,18.07
2017-05-24T05:15:14.386Z,18
2017-05-24T05:15:40.549Z,18.08
2017-05-24T05:16:06.640Z,18.05
2017-05-24T05:16:32.744Z,18.1
2017-05-24T05:16:58.857Z,18.03
2017-05-24T05:17:24.963Z,18.04
2017-05-24T05:17:51.125Z,18.01
2017-05-24T05:18:17.214Z,18.01
2017-05-24T05:18:43.316Z,17.98
2017-05-24T05:19:09.507Z,18.05
2017-05-24T05:19:35.650Z,18.05
2017-05-24T05:20:01.771Z,18.13
2017-05-24T05:20:27.906Z,18.18
2017-05-24T05:20:54.027Z,18.23
2017-05-24T05:21:20.121Z,18.16
2017-05-24T05:21:46.256Z,18.26
2017-05-24T05:22:12.357Z,18.34
2017-05-24T05:22:38.480Z,18.38
2017-05-24T05:23:04.606Z,18.38
2017-05-24T05:23:30.764Z,18.41
2017-05-24T05:23:56.882Z,18.38
2017-05-24T05:24:23.069Z,18.43
2017-05-24T05:24:49.208Z,18.41
2017-05-24T05:25:15.374Z,18.37
2017-05-24T05:25:41.475Z,18.38
2017-05-24T05:26:07.583Z,18.45
2017-05-24T05:26:33.676Z,18.35
2017-05-24T05:26:59.772Z,18.52
2017-05-24T05:27:25.895Z,18.56
2017-05-24T05:27:51.999Z,18.45
2017-05-24T05:28:18.163Z,18.44
2017-05-24T05:28:44.277Z,18.4
2017-05-24T05:29:10.378Z,18.45
2017-05-24T05:29:36.594Z,18.49
2017-05-24T05:30:02.710Z,18.52
2017-05-24T05:30:28.809Z,18.53
2017-05-24T05:30:54.917Z,18.68
2017-05-24T05:31:21.012Z,18.63
2017-05-24T05:31:47.128Z,18.75
2017-05-24T05:32:13.268Z,18.71
2017-05-24T05:32:39.394Z,18.83
2017-05-24T05:33:05.526Z,18.88
2017-05-24T05:33:31.643Z,18.92
2017-05-24T05:33:57.767Z,18.93
2017-05-24T05:34:23.901Z,19.02
2017-05-24T05:34:50.023Z,18.95
2017-05-24T05:35:16.138Z,19.07
2017-05-24T05:35:42.249Z,19.12
2017-05-24T05:36:08.402Z,19.12
2017-05-24T05:36:34.536Z,19.21
2017-05-24T05:37:00.643Z,19.12
2017-05-24T05:37:26.743Z,19.11
2017-05-24T05:37:52.884Z,19.21